createdAt,value
2023-04-27T00:02:23.528Z,23.09
2023-04-27T00:04:51.856Z,23.07
2023-04-27T00:07:19.444Z,23.08
2023-04-27T00:09:47.238Z,23.06
2023-04-27T00:12:14.920Z,23.06
2023-04-27T00:14:42.369Z,23.07
2023-04-27T00:17:09.801Z,23.06
2023-04-27T00:19:37.718Z,23.06
2023-04-27T00:22:05.177Z,23.06
2023-04-27T00:24:32.592Z,23.07
2023-04-27T00:27:00.521Z,23.05
2023-04-27T00:29:27.937Z,23.06
2023-04-27T00:31:55.943Z,23.06
2023-04-27T00:34:23.643Z,23.05
2023-04-27T00:36:51.261Z,23.05
2023-04-27T00:39:20.613Z,23.05
2023-04-27T00:41:48.337Z,23.06
2023-04-27T00:44:23.540Z,23.06
2023-04-27T00:46:51.471Z,23.06
2023-04-27T00:49:22.417Z,23.06
2023-04-27T00:51:49.818Z,23.05
2023-04-27T00:54:19.617Z,23.05
2023-04-27T00:56:50.780Z,23.03
2023-04-27T00:59:19.061Z,23.02
2023-04-27T01:01:46.826Z,23.03
2023-04-27T01:04:14.525Z,23.02
2023-04-27T01:06:42.422Z,23.03
2023-04-27T01:09:11.043Z,23.02
2023-04-27T01:11:38.621Z,23.02
2023-04-27T01:14:06.800Z,23.02
2023-04-27T01:16:34.339Z,23.01
2023-04-27T01:19:02.704Z,23.01
2023-04-27T01:21:30.995Z,23.01
2023-04-27T01:23:59.139Z,23.01
2023-04-27T01:26:26.919Z,23.00
2023-04-27T01:28:54.682Z,22.99
2023-04-27T01:31:22.132Z,22.98
2023-04-27T01:33:49.572Z,22.98
2023-04-27T01:36:17.303Z,22.98
2023-04-27T01:38:44.710Z,22.98
2023-04-27T01:41:13.704Z,22.97
2023-04-27T01:43:43.748Z,22.97
2023-04-27T01:46:12.503Z,22.97
2023-04-27T01:48:42.877Z,22.97
2023-04-27T01:51:11.418Z,22.98
2023-04-27T01:53:38.851Z,23.07
2023-04-27T01:56:06.894Z,23.00
2023-04-27T01:58:34.370Z,22.97
2023-04-27T02:01:01.821Z,22.97
2023-04-27T02:03:29.760Z,22.97
2023-04-27T02:05:57.300Z,22.96
2023-04-27T02:08:24.728Z,22.95
2023-04-27T02:10:52.564Z,22.96
2023-04-27T02:13:19.981Z,22.96
2023-04-27T02:15:47.513Z,22.97
2023-04-27T02:18:16.096Z,22.96
2023-04-27T02:20:43.500Z,22.98
2023-04-27T02:23:11.645Z,22.96
2023-04-27T02:25:42.880Z,22.95
2023-04-27T02:28:10.476Z,22.95
2023-04-27T02:30:38.629Z,22.94
2023-04-27T02:33:06.310Z,22.95
2023-04-27T02:35:33.782Z,22.95
2023-04-27T02:38:01.625Z,22.95
2023-04-27T02:40:29.019Z,22.94
2023-04-27T02:42:58.040Z,22.94
2023-04-27T02:45:25.541Z,22.94
2023-04-27T02:47:53.009Z,22.92
2023-04-27T02:50:20.818Z,22.92
2023-04-27T02:52:48.284Z,22.92
2023-04-27T02:55:16.488Z,22.91
2023-04-27T02:57:44.371Z,22.91
2023-04-27T03:00:13.094Z,22.91
2023-04-27T03:02:40.773Z,22.91
2023-04-27T03:05:08.888Z,22.91
2023-04-27T03:07:36.448Z,22.90
2023-04-27T03:10:04.890Z,22.91
2023-04-27T03:12:32.576Z,22.91
2023-04-27T03:15:00.972Z,22.91
2023-04-27T03:17:28.525Z,22.90
2023-04-27T03:19:56.412Z,22.90
2023-04-27T03:22:24.623Z,22.90
2023-04-27T03:24:52.002Z,22.89
2023-04-27T03:27:19.837Z,22.90
2023-04-27T03:29:47.319Z,22.91
2023-04-27T03:32:15.736Z,22.89
2023-04-27T03:34:43.490Z,22.90
2023-04-27T03:37:10.887Z,22.89
2023-04-27T03:39:38.364Z,22.89
2023-04-27T03:42:06.174Z,22.89
2023-04-27T03:44:34.284Z,22.88
2023-04-27T03:47:02.461Z,22.88
2023-04-27T03:49:30.612Z,22.88
2023-04-27T03:51:58.187Z,22.86
2023-04-27T03:54:25.804Z,22.88
2023-04-27T03:56:53.498Z,22.87
2023-04-27T03:59:21.264Z,22.87
2023-04-27T04:01:49.324Z,22.87
2023-04-27T04:04:17.131Z,22.88
2023-04-27T04:06:44.732Z,22.88
2023-04-27T04:09:12.996Z,22.89
2023-04-27T04:11:40.980Z,22.88
2023-04-27T04:14:09.735Z,22.87
2023-04-27T04:16:37.179Z,22.86
2023-04-27T04:19:04.976Z,22.84
2023-04-27T04:21:32.502Z,22.82
2023-04-27T04:23:59.911Z,22.82
2023-04-27T04:26:27.809Z,22.81
2023-04-27T04:28:57.157Z,22.79
2023-04-27T04:31:24.745Z,22.77
2023-04-27T04:33:52.774Z,22.77
2023-04-27T04:36:21.388Z,22.77
2023-04-27T04:38:51.576Z,22.75
2023-04-27T04:41:19.362Z,22.75
2023-04-27T04:43:49.406Z,22.74
2023-04-27T04:46:17.289Z,22.74
2023-04-27T04:48:45.010Z,22.73
2023-04-27T04:51:12.711Z,22.72
2023-04-27T04:53:40.142Z,22.70
2023-04-27T04:56:14.194Z,22.70
2023-04-27T04:58:41.608Z,22.69
2023-04-27T05:01:09.996Z,22.67
2023-04-27T05:03:37.706Z,22.67
2023-04-27T05:06:05.532Z,22.67
2023-04-27T05:08:33.211Z,22.66
2023-04-27T05:11:00.718Z,22.66
2023-04-27T05:13:28.281Z,22.65
2023-04-27T05:15:55.976Z,22.65
2023-04-27T05:18:23.469Z,22.64
2023-04-27T05:20:50.912Z,22.64
2023-04-27T05:23:18.597Z,22.64
2023-04-27T05:25:46.145Z,22.64
2023-04-27T05:28:13.513Z,22.65
2023-04-27T05:30:42.565Z,22.66
2023-04-27T05:33:10.136Z,22.66
2023-04-27T05:35:37.593Z,22.67
2023-04-27T05:38:05.299Z,22.67
2023-04-27T05:40:32.723Z,22.69
2023-04-27T05:43:03.356Z,22.70
2023-04-27T05:45:31.041Z,22.71
2023-04-27T05:47:58.576Z,22.71
2023-04-27T05:50:26.092Z,22.73
2023-04-27T05:52:53.780Z,22.73
2023-04-27T05:55:21.708Z,22.73
2023-04-27T05:57:54.504Z,22.75
2023-04-27T06:00:32.226Z,22.74
2023-04-27T06:03:00.004Z,22.75
2023-04-27T06:05:28.094Z,22.75
2023-04-27T06:07:55.660Z,22.75
2023-04-27T06:10:23.330Z,22.75
2023-04-27T06:12:50.816Z,22.75
2023-04-27T06:15:18.333Z,22.75
2023-04-27T06:17:46.127Z,22.75
2023-04-27T06:20:13.652Z,22.74
2023-04-27T06:22:41.102Z,22.74
2023-04-27T06:25:08.855Z,22.72
2023-04-27T06:27:36.364Z,22.73
2023-04-27T06:30:05.035Z,22.71
2023-04-27T06:32:33.246Z,22.70
2023-04-27T06:35:00.689Z,22.70
2023-04-27T06:37:28.128Z,22.67
2023-04-27T06:39:56.254Z,22.66
2023-04-27T06:42:23.722Z,22.66
2023-04-27T06:44:54.816Z,22.64
2023-04-27T06:47:22.874Z,22.64
2023-04-27T06:49:50.898Z,22.63
2023-04-27T06:52:18.323Z,22.61
2023-04-27T06:54:46.117Z,22.60
2023-04-27T06:57:13.639Z,22.59
2023-04-27T06:59:41.074Z,22.59
2023-04-27T07:02:08.749Z,22.58
2023-04-27T07:04:38.084Z,22.58
2023-04-27T07:07:05.652Z,22.58
2023-04-27T07:09:33.559Z,22.58
2023-04-27T07:12:01.411Z,22.56
2023-04-27T07:14:28.801Z,22.56
2023-04-27T07:16:56.526Z,22.56
2023-04-27T07:19:23.954Z,22.54
2023-04-27T07:21:51.884Z,22.54
2023-04-27T07:24:20.467Z,22.53
2023-04-27T07:26:48.148Z,22.53
2023-04-27T07:29:26.602Z,22.52
2023-04-27T07:31:55.910Z,22.51
2023-04-27T07:34:23.997Z,22.52
2023-04-27T07:36:54.188Z,22.51
2023-04-27T07:39:22.446Z,22.51
2023-04-27T07:41:50.217Z,22.50
2023-04-27T07:44:18.723Z,22.51
2023-04-27T07:46:49.635Z,22.49
2023-04-27T07:49:17.086Z,22.48
2023-04-27T07:51:44.545Z,22.47
2023-04-27T07:54:12.344Z,22.47
2023-04-27T07:56:43.136Z,22.47
2023-04-27T07:59:10.737Z,22.46
2023-04-27T08:01:38.589Z,22.46
2023-04-27T08:04:06.762Z,22.46
2023-04-27T08:06:35.523Z,22.46
2023-04-27T08:09:04.359Z,22.45
2023-04-27T08:11:32.186Z,22.46
2023-04-27T08:13:59.634Z,22.44
2023-04-27T08:16:27.123Z,22.45
2023-04-27T08:18:54.939Z,22.43
2023-04-27T08:21:22.419Z,22.42
2023-04-27T08:23:49.950Z,22.41
2023-04-27T08:26:17.669Z,22.41
2023-04-27T08:28:45.143Z,22.40
2023-04-27T08:31:12.945Z,22.40
2023-04-27T08:33:40.691Z,22.39
2023-04-27T08:36:08.392Z,22.39
2023-04-27T08:38:35.987Z,22.39
2023-04-27T08:41:18.007Z,22.37
2023-04-27T08:43:51.342Z,22.37
2023-04-27T08:46:23.245Z,22.37
2023-04-27T08:48:51.174Z,22.37
2023-04-27T08:51:19.957Z,22.36
2023-04-27T08:53:51.840Z,22.36
2023-04-27T08:56:19.949Z,22.35
2023-04-27T08:58:47.394Z,22.36
2023-04-27T09:01:14.894Z,22.36
2023-04-27T09:03:43.062Z,22.36
2023-04-27T09:06:10.796Z,22.37
2023-04-27T09:08:45.044Z,22.37
2023-04-27T09:11:16.517Z,22.39
2023-04-27T09:13:45.277Z,22.40
2023-04-27T09:16:14.374Z,22.41
2023-04-27T09:18:43.633Z,22.43
2023-04-27T09:21:12.118Z,22.46
2023-04-27T09:23:44.552Z,22.47
2023-04-27T09:26:19.629Z,22.47
2023-04-27T09:28:48.363Z,22.48
2023-04-27T09:31:16.365Z,22.48
2023-04-27T09:33:44.150Z,22.47
2023-04-27T09:36:11.946Z,22.49
2023-04-27T09:38:39.383Z,22.49
2023-04-27T09:41:06.898Z,22.50
2023-04-27T09:43:34.680Z,22.50
2023-04-27T09:46:04.060Z,22.49
2023-04-27T09:48:31.638Z,22.48
2023-04-27T09:50:59.308Z,22.50
2023-04-27T09:53:43.841Z,22.48
2023-04-27T09:56:36.472Z,22.47
2023-04-27T09:59:28.706Z,22.48
2023-04-27T10:01:57.557Z,22.49
2023-04-27T10:04:32.843Z,22.47
2023-04-27T10:07:01.369Z,22.46
2023-04-27T10:09:53.738Z,22.47
2023-04-27T10:12:21.823Z,22.46
2023-04-27T10:14:49.930Z,22.46
2023-04-27T10:17:17.734Z,22.45
2023-04-27T10:20:05.291Z,22.44
2023-04-27T10:22:43.983Z,22.46
2023-04-27T10:25:14.515Z,22.44
2023-04-27T10:27:42.701Z,22.42
2023-04-27T10:30:11.460Z,22.43
2023-04-27T10:32:50.913Z,22.43
2023-04-27T10:35:19.087Z,22.44
2023-04-27T10:37:47.653Z,22.46
2023-04-27T10:40:17.388Z,22.43
2023-04-27T10:42:45.547Z,22.44
2023-04-27T10:45:15.844Z,22.53
2023-04-27T10:47:44.254Z,22.46
2023-04-27T10:50:13.572Z,22.41
2023-04-27T10:52:44.289Z,22.42
2023-04-27T10:55:19.690Z,22.42
2023-04-27T10:57:50.958Z,22.43
2023-04-27T11:00:28.601Z,22.43
2023-04-27T11:02:58.071Z,22.44
2023-04-27T11:05:30.011Z,22.44
2023-04-27T11:08:07.743Z,22.40
2023-04-27T11:10:35.959Z,22.39
2023-04-27T11:13:14.094Z,22.38
2023-04-27T11:16:01.994Z,22.37
2023-04-27T11:18:33.712Z,22.40
2023-04-27T11:21:13.233Z,22.37
2023-04-27T11:23:41.200Z,22.39
2023-04-27T11:26:12.829Z,22.36
2023-04-27T11:28:41.058Z,22.36
2023-04-27T11:31:08.906Z,22.35
2023-04-27T11:33:36.779Z,22.36
2023-04-27T11:36:04.462Z,22.36
2023-04-27T11:38:35.067Z,22.37
2023-04-27T11:41:06.413Z,22.36
2023-04-27T11:43:34.298Z,22.35
2023-04-27T11:46:06.018Z,22.37
2023-04-27T11:48:37.068Z,22.36
2023-04-27T11:51:04.761Z,22.37
2023-04-27T11:53:33.892Z,22.37
2023-04-27T11:56:02.642Z,22.36
2023-04-27T11:58:30.386Z,22.37
2023-04-27T12:00:58.085Z,22.37
2023-04-27T12:03:26.210Z,22.36
2023-04-27T12:05:54.275Z,22.37
2023-04-27T12:08:21.792Z,22.37
2023-04-27T12:10:49.625Z,22.36
2023-04-27T12:13:17.028Z,22.37
2023-04-27T12:15:44.425Z,22.37
2023-04-27T12:18:12.204Z,22.36
2023-04-27T12:20:39.880Z,22.37
2023-04-27T12:23:07.369Z,22.36
2023-04-27T12:25:35.032Z,22.36
2023-04-27T12:28:02.622Z,22.37
2023-04-27T12:30:30.162Z,22.37
2023-04-27T12:32:59.624Z,22.36
2023-04-27T12:35:27.313Z,22.34
2023-04-27T12:37:55.314Z,22.36
2023-04-27T12:40:23.321Z,22.35
2023-04-27T12:42:50.704Z,22.36
2023-04-27T12:45:18.137Z,22.35
2023-04-27T12:48:01.240Z,22.35
2023-04-27T12:50:33.372Z,22.36
2023-04-27T12:53:01.119Z,22.35
2023-04-27T12:55:33.176Z,22.35
2023-04-27T12:58:02.655Z,22.35
2023-04-27T13:00:30.221Z,22.35
2023-04-27T13:02:58.647Z,22.36
2023-04-27T13:05:26.504Z,22.35
2023-04-27T13:07:53.968Z,22.35
2023-04-27T13:10:21.374Z,22.35
2023-04-27T13:12:49.060Z,22.34
2023-04-27T13:15:16.474Z,22.34
2023-04-27T13:17:44.252Z,22.34
2023-04-27T13:20:12.343Z,22.35
2023-04-27T13:22:40.904Z,22.34
2023-04-27T13:25:09.682Z,22.34
2023-04-27T13:27:37.523Z,22.35
2023-04-27T13:30:05.481Z,22.34
2023-04-27T13:32:32.998Z,22.34
2023-04-27T13:35:00.978Z,22.34
2023-04-27T13:37:28.532Z,22.34
2023-04-27T20:03:53.463Z,22.48
2023-04-27T20:06:21.794Z,22.47
2023-04-27T20:08:49.412Z,22.49
2023-04-27T20:11:17.168Z,22.49
2023-04-27T20:13:44.955Z,22.50
2023-04-27T20:16:13.058Z,22.52
2023-04-27T20:18:40.599Z,22.50
2023-04-27T20:21:08.548Z,22.51
2023-04-27T20:23:35.980Z,22.52
2023-04-27T20:26:03.389Z,22.52
2023-04-27T20:28:31.401Z,22.52
2023-04-27T20:30:58.848Z,22.52
2023-04-27T20:33:26.364Z,22.52
2023-04-27T20:36:03.696Z,22.52
2023-04-27T20:38:34.136Z,22.51
2023-04-27T20:41:03.276Z,22.51
2023-04-27T20:43:31.509Z,22.51
2023-04-27T20:45:59.013Z,22.48
2023-04-27T20:48:28.542Z,22.50
2023-04-27T20:50:55.954Z,22.49
2023-04-27T20:53:23.464Z,22.49
2023-04-27T20:55:51.116Z,22.48
2023-04-27T20:58:18.628Z,22.48
2023-04-27T21:00:46.415Z,22.49
2023-04-27T21:03:14.297Z,22.47
2023-04-27T21:05:41.792Z,22.47
2023-04-27T21:08:09.511Z,22.48
2023-04-27T21:10:37.329Z,22.48
2023-04-27T21:13:04.832Z,22.49
2023-04-27T21:15:33.403Z,22.47
2023-04-27T21:18:01.157Z,22.47
2023-04-27T21:20:28.636Z,22.46
2023-04-27T21:22:56.451Z,22.47
2023-04-27T21:25:24.161Z,22.47
2023-04-27T21:27:51.618Z,22.46
2023-04-27T21:30:19.040Z,22.46
2023-04-27T21:32:46.808Z,22.45
2023-04-27T21:35:14.289Z,22.46
2023-04-27T21:37:41.868Z,22.47
2023-04-27T21:40:09.849Z,22.46
2023-04-27T21:42:37.267Z,22.46
2023-04-27T21:45:04.883Z,22.45
2023-04-27T21:47:32.663Z,22.47
2023-04-27T21:50:00.190Z,22.47
2023-04-27T21:52:27.579Z,22.46
2023-04-27T21:54:55.338Z,22.47
2023-04-27T21:57:22.736Z,22.47
2023-04-27T21:59:50.187Z,22.47
2023-04-27T22:02:17.916Z,22.49
2023-04-27T22:04:45.820Z,22.48
2023-04-27T22:07:13.313Z,22.47
2023-04-27T22:09:41.515Z,22.48
2023-04-27T22:12:09.229Z,22.47
2023-04-27T22:14:36.645Z,22.46
2023-04-27T22:17:04.036Z,22.46
2023-04-27T22:19:31.729Z,22.45
2023-04-27T22:21:59.128Z,22.43
2023-04-27T22:24:26.553Z,22.44
2023-04-27T22:26:54.258Z,22.43
2023-04-27T22:29:21.690Z,22.43
2023-04-27T22:31:49.147Z,22.41
2023-04-27T22:34:17.153Z,22.42
2023-04-27T22:36:44.721Z,22.44
2023-04-27T22:39:12.165Z,22.41
2023-04-27T22:41:39.869Z,22.41
2023-04-27T22:44:07.348Z,22.40
2023-04-27T22:46:34.887Z,22.40
2023-04-27T22:49:02.637Z,22.39
2023-04-27T22:51:30.132Z,22.40
2023-04-27T22:53:57.515Z,22.40
2023-04-27T22:56:25.168Z,22.40
2023-04-27T22:58:52.555Z,22.39
2023-04-27T23:01:19.955Z,22.39
2023-04-27T23:03:47.831Z,22.39
2023-04-27T23:06:15.340Z,22.38
2023-04-27T23:08:45.399Z,22.39
2023-04-27T23:11:13.896Z,22.40
2023-04-27T23:13:41.422Z,22.41
2023-04-27T23:16:09.916Z,22.39
2023-04-27T23:18:37.916Z,22.39
2023-04-27T23:21:05.354Z,22.39
2023-04-27T23:23:32.743Z,22.39
2023-04-27T23:26:00.851Z,22.39
2023-04-27T23:28:28.264Z,22.38
2023-04-27T23:30:55.686Z,22.39
2023-04-27T23:33:24.387Z,22.39
2023-04-27T23:35:51.908Z,22.39
2023-04-27T23:38:19.329Z,22.37
2023-04-27T23:40:47.020Z,22.38
2023-04-27T23:43:14.542Z,22.37
2023-04-27T23:45:41.959Z,22.37
2023-04-27T23:48:09.687Z,22.37
2023-04-27T23:50:37.109Z,22.37
2023-04-27T23:53:04.509Z,22.36
2023-04-27T23:55:34.782Z,22.36
2023-04-27T23:58:02.422Z,22.36
